createdAt,value
2023-08-12T00:00:46.199Z,101088.67
2023-08-12T00:03:34.321Z,101088.48
2023-08-12T00:06:02.720Z,101085.70
2023-08-12T00:08:30.158Z,101081.96
2023-08-12T00:10:57.602Z,101081.45
2023-08-12T00:13:25.618Z,101073.14
2023-08-12T00:15:54.210Z,101070.55
2023-08-12T00:18:23.107Z,101068.73
2023-08-12T00:20:57.688Z,101069.02
2023-08-12T00:23:26.148Z,101071.24
2023-08-12T00:25:53.551Z,101065.89
2023-08-12T00:28:21.206Z,101068.69
2023-08-12T00:30:50.120Z,101067.36
2023-08-12T00:33:18.981Z,101065.77
2023-08-12T00:35:46.663Z,101063.20
2023-08-12T00:38:14.493Z,101064.45
2023-08-12T00:40:42.547Z,101064.07
2023-08-12T00:43:10.964Z,101059.51
2023-08-12T00:45:38.413Z,101059.35
2023-08-12T00:48:06.819Z,101056.59
2023-08-12T00:50:40.569Z,101054.86
2023-08-12T00:53:09.845Z,101058.64
2023-08-12T00:55:38.266Z,101060.44
2023-08-12T00:58:05.855Z,101060.59
2023-08-12T01:00:34.984Z,101058.04
2023-08-12T01:03:04.296Z,101058.23
2023-08-12T01:05:31.878Z,101053.41
2023-08-12T01:08:00.098Z,101051.15
2023-08-12T01:10:34.956Z,101051.06
2023-08-12T01:13:28.313Z,101053.21
2023-08-12T01:15:57.411Z,101055.75
2023-08-12T01:18:25.947Z,101059.63
2023-08-12T01:20:58.996Z,101056.31
2023-08-12T01:23:26.727Z,101053.38
2023-08-12T01:25:54.809Z,101049.43
2023-08-12T01:28:22.064Z,101049.36
2023-08-12T01:31:05.588Z,101043.02
2023-08-12T01:33:57.703Z,101044.77
2023-08-12T01:36:27.910Z,101045.78
2023-08-12T01:39:01.421Z,101047.08
2023-08-12T01:41:30.153Z,101042.94
2023-08-12T01:43:58.298Z,101036.77
2023-08-12T01:46:26.568Z,101040.16
2023-08-12T01:48:54.238Z,101042.38
2023-08-12T01:51:21.640Z,101039.58
2023-08-12T01:53:48.892Z,101037.48
2023-08-12T01:56:16.452Z,101035.60
2023-08-12T01:58:43.621Z,101032.96
2023-08-12T02:01:10.942Z,101032.41
2023-08-12T02:03:39.538Z,101031.48
2023-08-12T02:06:08.428Z,101031.13
2023-08-12T02:08:35.772Z,101034.11
2023-08-12T02:11:03.362Z,101031.77
2023-08-12T02:13:31.280Z,101028.61
2023-08-12T02:15:58.705Z,101025.92
2023-08-12T02:18:26.172Z,101023.27
2023-08-12T02:20:53.369Z,101019.77
2023-08-12T02:23:20.508Z,101026.73
2023-08-12T02:25:48.250Z,101027.30
2023-08-12T02:28:16.584Z,101025.84
2023-08-12T02:30:45.056Z,101021.33
2023-08-12T02:33:12.343Z,101018.27
2023-08-12T02:35:40.997Z,101017.48
2023-08-12T02:38:08.924Z,101018.80
2023-08-12T02:40:36.851Z,101014.82
2023-08-12T02:43:05.233Z,101014.90
2023-08-12T02:45:36.449Z,101012.45
2023-08-12T02:48:04.678Z,101009.75
2023-08-12T02:50:32.549Z,101012.06
2023-08-12T02:52:59.715Z,101011.84
2023-08-12T02:55:28.083Z,101016.91
2023-08-12T02:57:55.944Z,101018.61
2023-08-12T03:00:25.474Z,101020.98
2023-08-12T03:02:52.768Z,101021.90
2023-08-12T03:05:21.733Z,101020.92
2023-08-12T03:07:50.581Z,101026.01
2023-08-12T03:10:19.149Z,101025.58
2023-08-12T03:12:46.689Z,101022.22
2023-08-12T03:15:14.502Z,101019.73
2023-08-12T03:17:42.761Z,101025.23
2023-08-12T03:20:17.448Z,101024.77
2023-08-12T03:22:44.993Z,101023.36
2023-08-12T03:25:15.520Z,101024.30
2023-08-12T03:27:43.376Z,101022.61
2023-08-12T03:30:11.448Z,101021.40
2023-08-12T03:32:39.839Z,101022.81
2023-08-12T03:35:07.599Z,101021.01
2023-08-12T03:37:35.903Z,101024.20
2023-08-12T03:40:04.356Z,101024.15
2023-08-12T03:42:32.084Z,101025.48
2023-08-12T03:44:59.752Z,101022.11
2023-08-12T03:47:30.660Z,101022.23
2023-08-12T03:49:58.024Z,101022.39
2023-08-12T03:52:27.251Z,101023.67
2023-08-12T03:54:55.477Z,101024.03
2023-08-12T03:57:22.745Z,101023.34
2023-08-12T03:59:50.140Z,101017.89
2023-08-12T04:02:17.338Z,101022.18
2023-08-12T04:04:47.015Z,101022.64
2023-08-12T04:07:14.922Z,101031.44
2023-08-12T04:09:42.566Z,101029.04
2023-08-12T04:12:10.877Z,101027.24
2023-08-12T04:14:41.477Z,101023.75
2023-08-12T04:17:09.698Z,101021.02
2023-08-12T04:19:37.623Z,101019.85
2023-08-12T04:22:06.315Z,101017.73
2023-08-12T04:24:34.676Z,101015.23
2023-08-12T04:27:02.355Z,101014.88
2023-08-12T04:29:30.349Z,101018.36
2023-08-12T04:31:57.675Z,101019.64
2023-08-12T04:34:24.952Z,101023.42
2023-08-12T04:36:53.106Z,101029.02
2023-08-12T04:39:20.416Z,101033.58
2023-08-12T04:41:49.016Z,101029.28
2023-08-12T04:44:16.686Z,101024.91
2023-08-12T04:46:44.928Z,101025.59
2023-08-12T04:49:12.771Z,101026.60
2023-08-12T04:51:42.600Z,101024.91
2023-08-12T04:54:10.780Z,101021.70
2023-08-12T04:56:38.779Z,101019.86
2023-08-12T04:59:07.505Z,101020.13
2023-08-12T05:01:42.929Z,101017.02
2023-08-12T05:04:19.029Z,101021.39
2023-08-12T05:06:52.956Z,101021.19
2023-08-12T05:09:20.707Z,101019.56
2023-08-12T05:12:02.323Z,101013.80
2023-08-12T05:14:29.993Z,101010.38
2023-08-12T05:16:57.400Z,101007.30
2023-08-12T05:19:34.680Z,101005.42
2023-08-12T05:22:02.001Z,101005.84
2023-08-12T05:24:29.259Z,101001.02
2023-08-12T05:26:57.918Z,100999.61
2023-08-12T05:29:25.514Z,100997.56
2023-08-12T05:31:57.110Z,101000.46
2023-08-12T05:34:27.808Z,100998.24
2023-08-12T05:36:55.042Z,101000.42
2023-08-12T05:39:22.588Z,101003.02
2023-08-12T05:41:52.715Z,101000.02
2023-08-12T05:44:25.669Z,101001.69
2023-08-12T05:46:55.742Z,101003.70
2023-08-12T05:49:39.592Z,100998.34
2023-08-12T05:58:58.556Z,100980.52
2023-08-12T06:01:26.347Z,100975.63
2023-08-12T06:04:12.950Z,100975.56
2023-08-12T06:06:53.618Z,100972.98
2023-08-12T06:09:23.358Z,100973.68
2023-08-12T06:11:50.627Z,100975.17
2023-08-12T06:14:19.104Z,100974.88
2023-08-12T06:16:46.426Z,100976.11
2023-08-12T06:19:13.641Z,100975.44
2023-08-12T06:21:40.818Z,100974.08
2023-08-12T06:24:08.078Z,100972.14
2023-08-12T06:26:35.417Z,100976.13
2023-08-12T06:29:05.688Z,100971.17
2023-08-12T06:31:33.488Z,100964.98
2023-08-12T06:34:01.818Z,100963.10
2023-08-12T06:36:29.726Z,100965.60
2023-08-12T06:38:57.923Z,100962.64
2023-08-12T06:41:25.360Z,100965.14
2023-08-12T06:43:52.950Z,100967.05
2023-08-12T06:46:21.237Z,100961.54
2023-08-12T06:48:49.134Z,100962.34
2023-08-12T06:51:16.444Z,100957.08
2023-08-12T06:53:43.926Z,100958.82
2023-08-12T06:56:12.169Z,100958.90
2023-08-12T06:58:39.624Z,100953.39
2023-08-12T07:01:06.998Z,100957.59
2023-08-12T07:03:35.017Z,100954.05
2023-08-12T07:06:04.039Z,100951.16
2023-08-12T07:08:33.141Z,100950.02
2023-08-12T07:11:00.520Z,100951.61
2023-08-12T07:13:29.343Z,100950.98
2023-08-12T07:15:58.012Z,100953.42
2023-08-12T07:18:25.955Z,100951.70
2023-08-12T07:20:53.524Z,100947.45
2023-08-12T07:23:23.167Z,100945.46
2023-08-12T07:25:51.249Z,100947.77
2023-08-12T07:28:18.490Z,100944.77
2023-08-12T07:30:46.439Z,100946.58
2023-08-12T07:33:21.022Z,100941.55
2023-08-12T07:35:48.315Z,100936.70
2023-08-12T07:38:15.878Z,100933.71
2023-08-12T07:40:44.199Z,100936.45
2023-08-12T07:43:11.510Z,100937.46
2023-08-12T07:45:51.390Z,100938.75
2023-08-12T07:48:21.921Z,100940.07
2023-08-12T07:50:56.926Z,100939.98
2023-08-12T07:53:24.306Z,100947.11
2023-08-12T07:55:51.921Z,100946.64
2023-08-12T07:58:19.653Z,100951.35
2023-08-12T08:00:47.047Z,100951.20
2023-08-12T08:03:15.930Z,100945.98
2023-08-12T08:05:46.153Z,100935.64
2023-08-12T08:08:16.665Z,100935.91
2023-08-12T08:10:44.016Z,100936.02
2023-08-12T08:13:11.232Z,100936.17
2023-08-12T08:15:38.940Z,100938.59
2023-08-12T08:18:08.334Z,100931.48
2023-08-12T08:20:36.015Z,100927.05
2023-08-12T08:23:03.468Z,100930.64
2023-08-12T08:25:31.835Z,100933.82
2023-08-12T08:27:59.424Z,100930.80
2023-08-12T08:30:27.091Z,100931.61
2023-08-12T08:32:54.613Z,100925.05
2023-08-12T08:35:22.786Z,100928.20
2023-08-12T08:37:50.727Z,100924.75
2023-08-12T08:40:19.985Z,100923.23
2023-08-12T08:42:55.560Z,100925.81
2023-08-12T08:45:24.199Z,100926.48
2023-08-12T08:47:53.273Z,100926.14
2023-08-12T08:50:22.313Z,100925.66
2023-08-12T08:52:52.337Z,100924.55
2023-08-12T08:55:22.672Z,100923.70
2023-08-12T08:57:51.207Z,100919.72
2023-08-12T09:00:20.532Z,100914.50
2023-08-12T09:02:50.673Z,100909.35
2023-08-12T09:05:21.077Z,100911.16
2023-08-12T09:07:51.249Z,100916.11
2023-08-12T09:10:21.505Z,100915.73
2023-08-12T09:12:49.102Z,100917.48
2023-08-12T09:15:17.833Z,100917.67
2023-08-12T09:17:45.387Z,100918.63
2023-08-12T09:20:13.251Z,100914.38
2023-08-12T09:22:42.009Z,100909.32
2023-08-12T09:25:11.191Z,100905.10
2023-08-12T09:27:39.040Z,100905.96
2023-08-12T09:30:08.270Z,100908.38
2023-08-12T09:32:35.880Z,100903.04
2023-08-12T09:35:04.578Z,100906.99
2023-08-12T09:37:32.636Z,100908.00
2023-08-12T09:39:59.956Z,100893.34
2023-08-12T09:42:28.656Z,100894.61
2023-08-12T09:44:57.680Z,100890.93
2023-08-12T09:47:28.100Z,100884.19
2023-08-12T09:49:55.676Z,100878.52
2023-08-12T09:52:23.130Z,100876.11
2023-08-12T09:54:55.685Z,100872.77
2023-08-12T09:57:28.452Z,100869.36
2023-08-12T09:59:58.441Z,100866.78
2023-08-12T10:02:27.953Z,100869.48
2023-08-12T10:04:57.534Z,100862.40
2023-08-12T10:07:26.130Z,100864.54
2023-08-12T10:09:54.473Z,100855.48
2023-08-12T10:12:22.845Z,100852.88
2023-08-12T10:14:50.045Z,100854.68
2023-08-12T10:17:29.587Z,100855.91
2023-08-12T10:20:08.442Z,100861.14
2023-08-12T10:22:37.099Z,100851.66
2023-08-12T10:25:04.745Z,100847.55
2023-08-12T10:27:32.099Z,100852.20
2023-08-12T10:30:00.125Z,100848.66
2023-08-12T10:32:27.827Z,100848.68
2023-08-12T10:34:57.187Z,100843.20
2023-08-12T10:37:26.197Z,100844.27
2023-08-12T10:39:56.385Z,100843.92
2023-08-12T10:42:48.958Z,100839.48
2023-08-12T10:45:17.834Z,100839.08
2023-08-12T10:48:21.581Z,100840.02
2023-08-12T10:50:52.979Z,100839.58
2023-08-12T10:53:33.817Z,100836.20
2023-08-12T10:56:03.574Z,100834.48
2023-08-12T10:58:42.092Z,100829.04
2023-08-12T11:01:17.443Z,100828.77
2023-08-12T11:03:45.299Z,100823.59
2023-08-12T11:06:13.213Z,100819.44
2023-08-12T11:08:48.289Z,100816.70
2023-08-12T11:11:26.013Z,100817.92
2023-08-12T11:14:00.373Z,100809.02
2023-08-12T11:16:38.110Z,100809.20
2023-08-12T11:19:05.551Z,100802.80
2023-08-12T11:21:34.320Z,100807.02
2023-08-12T11:24:03.176Z,100801.83
2023-08-12T11:26:31.102Z,100802.10
2023-08-12T11:28:58.308Z,100803.05
2023-08-12T11:31:26.598Z,100804.27
2023-08-12T11:33:54.592Z,100801.34
2023-08-12T11:36:21.803Z,100800.10
2023-08-12T11:38:49.993Z,100803.65
2023-08-12T11:41:23.774Z,100802.83
2023-08-12T11:43:50.906Z,100798.64
2023-08-12T11:46:18.097Z,100800.16
2023-08-12T11:48:45.340Z,100798.17
2023-08-12T11:51:12.969Z,100802.14
2023-08-12T11:53:40.508Z,100798.00
2023-08-12T11:56:07.832Z,100794.27
2023-08-12T11:58:51.362Z,100788.11
2023-08-12T12:01:20.069Z,100781.25
2023-08-12T12:03:52.152Z,100778.77
2023-08-12T12:06:36.966Z,100772.17
2023-08-12T12:09:11.294Z,100771.92
2023-08-12T12:11:39.104Z,100772.33
2023-08-12T12:14:08.353Z,100764.84
2023-08-12T12:16:40.450Z,100763.27
2023-08-12T12:19:21.202Z,100767.56
2023-08-12T12:21:52.846Z,100769.40
2023-08-12T12:24:21.377Z,100769.08
2023-08-12T12:26:50.130Z,100765.86
2023-08-12T12:29:17.629Z,100762.06
2023-08-12T12:31:45.144Z,100759.99
2023-08-12T12:34:14.850Z,100758.10
2023-08-12T12:36:42.781Z,100754.13
2023-08-12T12:39:11.302Z,100752.83
2023-08-12T12:41:40.359Z,100751.63
2023-08-12T12:44:08.329Z,100744.30
2023-08-12T12:46:37.632Z,100747.52
2023-08-12T12:49:05.529Z,100743.62
2023-08-12T12:51:33.882Z,100735.78
2023-08-12T12:54:01.527Z,100735.05
2023-08-12T12:56:32.464Z,100732.43
2023-08-12T12:59:10.971Z,100727.61
2023-08-12T13:01:43.674Z,100726.46
2023-08-12T13:04:14.348Z,100720.15
2023-08-12T13:06:49.874Z,100720.94
2023-08-12T13:09:17.814Z,100716.48
2023-08-12T13:11:59.376Z,100717.35
2023-08-12T13:14:27.034Z,100717.69
2023-08-12T13:16:55.354Z,100717.44
2023-08-12T13:19:23.116Z,100706.59
2023-08-12T13:21:51.471Z,100701.83
2023-08-12T13:24:20.890Z,100701.31
2023-08-12T13:26:49.284Z,100707.34
2023-08-12T13:29:21.267Z,100698.56
2023-08-12T13:31:48.706Z,100690.84
2023-08-12T13:34:17.022Z,100683.55
2023-08-12T13:36:45.486Z,100678.61
2023-08-12T13:39:14.754Z,100678.30
2023-08-12T13:41:44.187Z,100678.52
2023-08-12T13:44:12.878Z,100671.70
2023-08-12T13:46:47.664Z,100670.80
2023-08-12T13:49:15.485Z,100671.83
2023-08-12T13:51:44.245Z,100665.77
2023-08-12T13:54:13.819Z,100656.94
2023-08-12T13:56:41.272Z,100655.71
2023-08-12T13:59:08.932Z,100656.11
2023-08-12T14:01:36.704Z,100653.39
2023-08-12T14:04:09.481Z,100651.66
2023-08-12T14:06:40.787Z,100652.25
2023-08-12T14:09:14.406Z,100650.36
2023-08-12T14:11:42.254Z,100644.33
2023-08-12T14:14:09.817Z,100638.47
2023-08-12T14:16:37.922Z,100629.30
2023-08-12T14:19:25.331Z,100628.67
2023-08-12T14:21:52.650Z,100621.80
2023-08-12T14:24:20.244Z,100617.61
2023-08-12T14:26:48.334Z,100611.98
2023-08-12T14:29:16.075Z,100610.83
2023-08-12T14:31:43.319Z,100612.05
2023-08-12T14:34:10.454Z,100617.12
2023-08-12T14:36:37.608Z,100615.25
2023-08-12T14:39:04.855Z,100612.02
2023-08-12T14:41:31.976Z,100608.70
2023-08-12T14:43:59.099Z,100610.83
2023-08-12T14:46:26.480Z,100607.74
2023-08-12T14:48:54.652Z,100606.61
2023-08-12T14:51:21.849Z,100600.52
2023-08-12T14:53:49.074Z,100597.02
2023-08-12T14:56:16.800Z,100593.46
2023-08-12T14:58:43.947Z,100594.02
2023-08-12T15:01:11.410Z,100582.14
2023-08-12T15:03:38.617Z,100584.45
2023-08-12T15:06:06.552Z,100585.09
2023-08-12T15:08:33.972Z,100582.52
2023-08-12T15:11:01.256Z,100582.52
2023-08-12T15:13:28.352Z,100579.55
2023-08-12T15:15:55.808Z,100576.73
2023-08-12T15:18:23.640Z,100573.30
2023-08-12T15:20:51.454Z,100568.05
2023-08-12T15:23:18.626Z,100569.73
2023-08-12T15:25:46.287Z,100566.80
2023-08-12T15:28:13.934Z,100566.83
2023-08-12T15:30:41.210Z,100558.23
2023-08-12T15:33:08.517Z,100556.06
2023-08-12T15:35:38.634Z,100558.52
2023-08-12T15:38:06.102Z,100560.30
2023-08-12T15:40:33.601Z,100557.54
2023-08-12T15:43:01.270Z,100558.88
2023-08-12T15:45:29.265Z,100560.71
2023-08-12T15:48:09.367Z,100560.52
2023-08-12T15:50:38.790Z,100565.52
2023-08-12T15:53:11.114Z,100563.48
2023-08-12T15:55:52.737Z,100560.30
2023-08-12T15:58:24.771Z,100558.66
2023-08-12T16:00:54.157Z,100564.23
2023-08-12T16:03:21.849Z,100564.23
2023-08-12T16:05:49.601Z,100556.20
2023-08-12T16:08:17.643Z,100556.23
2023-08-12T16:10:45.125Z,100550.64
2023-08-12T16:13:12.562Z,100548.67
2023-08-12T16:15:39.970Z,100546.98
2023-08-12T16:18:09.276Z,100549.61
2023-08-12T16:20:37.629Z,100547.53
2023-08-12T16:23:05.431Z,100546.07
2023-08-12T16:25:33.080Z,100544.40
2023-08-12T16:28:00.645Z,100544.08
2023-08-12T16:30:28.448Z,100538.30
2023-08-12T16:32:55.750Z,100536.96
2023-08-12T16:35:23.153Z,100535.89
2023-08-12T16:37:50.412Z,100535.77
2023-08-12T16:40:18.921Z,100534.05
2023-08-12T16:42:46.139Z,100529.93
2023-08-12T16:45:13.854Z,100531.49
2023-08-12T16:47:41.216Z,100522.58
2023-08-12T16:50:09.067Z,100522.08
2023-08-12T16:52:36.239Z,100525.00
2023-08-12T16:55:04.658Z,100517.69
2023-08-12T16:57:31.872Z,100520.42
2023-08-12T16:59:59.093Z,100518.69
2023-08-12T17:02:26.399Z,100515.13
2023-08-12T17:04:53.507Z,100511.38
2023-08-12T17:07:21.013Z,100503.20
2023-08-12T17:09:48.199Z,100501.98
2023-08-12T17:12:15.859Z,100498.91
2023-08-12T17:14:43.337Z,100496.89
2023-08-12T17:17:10.509Z,100494.67
2023-08-12T17:19:39.485Z,100493.58
2023-08-12T17:22:06.747Z,100491.20
2023-08-12T17:24:33.950Z,100490.86
2023-08-12T17:27:01.204Z,100489.85
2023-08-12T17:29:28.417Z,100490.84
2023-08-12T17:31:55.628Z,100488.97
2023-08-12T17:34:22.947Z,100486.15
2023-08-12T17:36:50.241Z,100480.35
2023-08-12T17:39:17.921Z,100477.27
2023-08-12T17:41:48.119Z,100479.77
2023-08-12T17:44:16.400Z,100478.92
2023-08-12T17:46:44.715Z,100482.13
2023-08-12T17:49:11.994Z,100480.28
2023-08-12T17:51:43.340Z,100483.18
2023-08-12T17:54:10.760Z,100480.64
2023-08-12T17:56:37.948Z,100479.92
2023-08-12T17:59:06.127Z,100479.04
2023-08-12T18:01:33.450Z,100476.16
2023-08-12T18:04:01.862Z,100478.56
2023-08-12T18:06:29.289Z,100481.20
2023-08-12T18:08:56.548Z,100481.37
2023-08-12T18:11:23.824Z,100483.23
2023-08-12T18:13:51.238Z,100487.52
2023-08-12T18:16:19.143Z,100488.11
2023-08-12T18:18:46.436Z,100490.98
2023-08-12T18:21:13.621Z,100493.88
2023-08-12T18:23:41.579Z,100494.09
2023-08-12T18:26:08.781Z,100494.66
2023-08-12T18:28:35.992Z,100493.13
2023-08-12T18:31:03.167Z,100499.58
2023-08-12T18:33:30.357Z,100504.95
2023-08-12T18:35:57.457Z,100505.46
2023-08-12T18:38:24.785Z,100502.98
2023-08-12T18:40:52.305Z,100507.95
2023-08-12T18:43:19.503Z,100506.40
2023-08-12T18:45:46.739Z,100506.21
2023-08-12T18:48:14.003Z,100505.95
2023-08-12T18:50:41.112Z,100507.83
2023-08-12T18:53:08.292Z,100506.48
2023-08-12T18:55:36.035Z,100507.66
2023-08-12T18:58:03.354Z,100514.05
2023-08-12T19:00:30.551Z,100510.19
2023-08-12T19:02:57.733Z,100502.05
2023-08-12T19:05:25.072Z,100497.88
2023-08-12T19:07:52.282Z,100493.47
2023-08-12T19:10:19.520Z,100489.26
2023-08-12T19:12:46.752Z,100488.11
2023-08-12T19:15:14.541Z,100484.38
2023-08-12T19:17:41.806Z,100486.10
2023-08-12T19:20:10.524Z,100485.04
2023-08-12T19:22:37.836Z,100486.20
2023-08-12T19:25:05.547Z,100483.09
2023-08-12T19:27:32.766Z,100480.96
2023-08-12T19:29:59.896Z,100479.73
2023-08-12T19:32:27.133Z,100475.41
2023-08-12T19:34:54.362Z,100480.17
2023-08-12T19:37:21.845Z,100480.02
2023-08-12T19:39:51.966Z,100476.55
2023-08-12T19:42:20.342Z,100470.83
2023-08-12T19:44:48.090Z,100465.66
2023-08-12T19:47:16.304Z,100463.46
2023-08-12T19:49:47.863Z,100464.13
2023-08-12T19:52:16.662Z,100458.72
2023-08-12T19:54:44.169Z,100458.52
2023-08-12T19:57:13.333Z,100457.71
2023-08-12T19:59:40.934Z,100459.27
2023-08-12T20:02:12.891Z,100455.27
2023-08-12T20:04:43.082Z,100458.41
2023-08-12T20:07:12.648Z,100450.67
2023-08-12T20:09:39.958Z,100451.70
2023-08-12T20:12:09.077Z,100452.05
2023-08-12T20:14:39.018Z,100450.52
2023-08-12T20:17:07.193Z,100451.03
2023-08-12T20:19:35.544Z,100447.54
2023-08-12T20:22:03.166Z,100448.34
2023-08-12T20:24:30.427Z,100448.70
2023-08-12T20:26:57.914Z,100447.46
2023-08-12T20:29:26.119Z,100444.35
2023-08-12T20:31:54.181Z,100446.57
2023-08-12T20:34:21.481Z,100449.79
2023-08-12T20:36:49.227Z,100445.70
2023-08-12T20:39:16.557Z,100445.03
2023-08-12T20:41:43.769Z,100446.13
2023-08-12T20:44:10.965Z,100449.81
2023-08-12T20:46:38.303Z,100449.30
2023-08-12T20:49:06.129Z,100444.98
2023-08-12T20:51:33.320Z,100442.48
2023-08-12T20:54:00.567Z,100440.70
2023-08-12T20:56:27.992Z,100444.13
2023-08-12T20:58:55.165Z,100443.80
2023-08-12T21:01:22.424Z,100444.98
2023-08-12T21:03:49.650Z,100441.12
2023-08-12T21:06:17.030Z,100440.65
2023-08-12T21:08:44.187Z,100435.52
2023-08-12T21:11:12.163Z,100432.27
2023-08-12T21:13:39.398Z,100432.32
2023-08-12T21:16:06.701Z,100433.04
2023-08-12T21:18:34.198Z,100432.74
2023-08-12T21:21:01.469Z,100431.05
2023-08-12T21:23:28.636Z,100425.45
2023-08-12T21:25:55.809Z,100424.05
2023-08-12T21:28:22.988Z,100421.48
2023-08-12T21:30:50.193Z,100414.92
2023-08-12T21:33:18.109Z,100416.96
2023-08-12T21:35:45.256Z,100416.45
2023-08-12T21:38:12.456Z,100416.25
2023-08-12T21:40:40.236Z,100409.75
2023-08-12T21:43:07.556Z,100408.42
2023-08-12T21:45:34.833Z,100406.50
2023-08-12T21:48:02.164Z,100402.67
2023-08-12T21:50:30.959Z,100397.41
2023-08-12T21:52:58.803Z,100395.77
2023-08-12T21:55:26.079Z,100396.20
2023-08-12T21:57:55.579Z,100398.64
2023-08-12T22:00:23.871Z,100398.45
2023-08-12T22:02:51.100Z,100398.35
2023-08-12T22:05:18.580Z,100402.50
2023-08-12T22:07:45.879Z,100401.29
2023-08-12T22:10:13.173Z,100403.77
2023-08-12T22:12:41.632Z,100403.33
2023-08-12T22:15:09.525Z,100403.80
2023-08-12T22:17:37.263Z,100402.89
2023-08-12T22:20:05.077Z,100393.86
2023-08-12T22:22:32.304Z,100393.40
2023-08-12T22:24:59.453Z,100405.19
2023-08-12T22:27:27.199Z,100405.70
2023-08-12T22:29:54.370Z,100402.97
2023-08-12T22:32:22.152Z,100405.56
2023-08-12T22:34:49.350Z,100407.92
2023-08-12T22:37:16.571Z,100410.85
2023-08-12T22:39:43.744Z,100408.59
2023-08-12T22:42:10.908Z,100409.27
2023-08-12T22:44:38.137Z,100403.54
2023-08-12T22:47:05.697Z,100404.33
2023-08-12T22:49:32.959Z,100402.61
2023-08-12T22:52:00.283Z,100401.41
2023-08-12T22:54:27.608Z,100413.24
2023-08-12T22:56:54.754Z,100412.27
2023-08-12T22:59:21.924Z,100416.48
2023-08-12T23:01:49.077Z,100414.84
2023-08-12T23:04:16.401Z,100417.14
2023-08-12T23:06:43.576Z,100415.39
2023-08-12T23:09:10.808Z,100408.77
2023-08-12T23:11:38.296Z,100404.08
2023-08-12T23:14:05.532Z,100407.98
2023-08-12T23:16:32.902Z,100406.57
2023-08-12T23:19:00.227Z,100410.02
2023-08-12T23:21:27.367Z,100409.05
2023-08-12T23:23:54.587Z,100403.80
2023-08-12T23:26:22.015Z,100404.10
2023-08-12T23:28:49.190Z,100407.44
2023-08-12T23:31:16.341Z,100403.72
2023-08-12T23:33:43.572Z,100402.04
2023-08-12T23:36:10.753Z,100404.17
2023-08-12T23:38:37.879Z,100407.94
2023-08-12T23:41:05.152Z,100407.66
2023-08-12T23:43:32.584Z,100408.11
2023-08-12T23:46:03.283Z,100404.63
2023-08-12T23:48:30.631Z,100400.92
2023-08-12T23:50:57.869Z,100393.89
2023-08-12T23:53:26.156Z,100395.34
2023-08-12T23:55:53.436Z,100394.99
2023-08-12T23:58:21.347Z,100396.09
